To NAV CANADA Home Page Login to a new session Search on AWWS site Disclaimer Vers la page française équivalente Tips FAQ What's new on the site To the Forecasts and Observations / NOTAM section To "File a Flight Plan" website Publications and other links Update of the User's profile FIC Telephone Numbers My Weather Data Folder Route Weather Data Regional Weather Data Local Weather Data To the Forecasts and Observations / NOTAM section
Request Generated 07/18/2019 at 16:28:30 UTC . Weather information available at that time is displayed.


Go to a specific product

Save this request

NOTAM

NOTAM


SIGMET
To the Product Selector

SIGMETS GFACN32

WSCN32 CWEG 181621
SIGMET E3 VALID 181620/182020 CWEG-
CZEG EDMONTON FIR FRQ TS OBS WTN 15 NM OF LINE /N5309 W11318/15 SE CYEG - /N5213
W11234/45 NW CEL4 TOP FL300 MOV E 20KT NC
RMK GFACN32
END/WSCN22/CWAO



AIRMET
To the Product Selector

AIRMETS GFACN32

GFACN32 - No AIRMET bulletins in effect



PIREP
To the Product Selector

FIR_WINNIPEG (WG)

WG - PIREP not available



METAR/TAF
To the Product Selector

REGINA INTL/SK    

METAR CYQR 181600Z 24012KT 15SM FEW020 FEW100 21/14 A2955 RMK CU1AC1 CU TR AC TR PRESFR SLP007 DENSITY ALT 3500FT=
METAR CYQR 181500Z 24007KT 190V270 15SM FEW010 FEW100 19/15 A2957 RMK SC1AC1 SC TR AC TR SLP014 DENSITY ALT 3300FT=
METAR CYQR 181400Z 25006KT 15SM FEW010 FEW100 FEW250 18/15 A2957 RMK SC1AC1CI1 SC TR AC TR CI TR SLP015 DENSITY ALT 3100FT=

TAF CYQR 181138Z 1812/1912 04006KT P6SM BKN100
BECMG 1813/1815 26015KT
FM181500 26015KT P6SM SCT060 TEMPO 1820/1903 P6SM -SHRA VCTS
BKN060CB
BECMG 1901/1903 26010KT
RMK NXT FCST BY 181800Z=

MOOSE JAW/AIR VICE MARSHAL C.M. MCEWEN/SK    

METAR CYMJ 181600Z 23009KT 15SM FEW100 21/12 A2955 RMK AC1 SLP006=
METAR CYMJ 181500Z 24014KT 15SM FEW030 FEW100 19/11 A2956 RMK CU1AC1 SLP009=
METAR CYMJ 181400Z 23014KT 15SM FEW095 18/11 A2956 RMK AC1 SLP011=

TAF CYMJ 181130Z 1812/1824 24008KT P6SM FEW100
BECMG 1814/1816 25012KT
FM182000 25012G22KT P6SM SCT050 PROB30 1820/1824 VRB15G25KT 4SM
TSRA BR BKN050CB
RMK NXT FCST BY 181800Z=


RADAR PCPN RATE
To the Product Selector
Pacific Canada      Western Canada     

SATELLITE VISIBLE
To the Product Selector
West Canada      

SATELLITE INFRARED
To the Product Selector
West Canada     

GRAPHICAL FA CLOUDS & WEATHER FORECASTS
To the Product Selector
Graphical FA gfacn32      

GRAPHICAL FA ICING, TURBULENCE & FREEZING LEVEL FORECASTS
To the Product Selector
Graphical FA gfacn32      

FDTEXT Low Level FD. Temperatures are not forecast for the 3,000-foot level.
To the Product Selector
STN YQR - REGINA. SASK for use 3000 6000 9000 12000 18000
FDCN01 CWAO FCST BASED ON 181200 DATA VALID 181800 17-21 2619+11 2820+05 2723+00 2733-13
FDCN02 CWAO FCST BASED ON 181200 DATA VALID 190000 21-06 2521+13 2623+05 2631-02 2544-14
FDCN03 CWAO FCST BASED ON 181200 DATA VALID 191200 06-17 2941+05 2735+01 2739-05 2548-18



Your time UTC time
Weather data provided by Environment Canada and NAV CANADA